Airfield :
LOGIN :

Register | Disclaimer

   EN    FR    IT 

 










Legend :    VFR   Marginal VFR   IFR   Intensive IFR   Very Intensive IFR
Visi :
Ceiling :
>= 8 km
>= 3000ft
5 to 8 km
1000 to 3000 ft
1500m to 5 km
500 to 1000 ft
800 to 1500m
200 to 500 ft
< 800m
< 200 ft
Symbols :   Thunderstorms  Fog  Heavy snow  Heavy precipitations  Wind > 20 kt
SIGMETs :     Misc.  Thunderstorms  Icing  Turbulence  Mountain Waves  Volcanic Ashes






- Airport Elevation : 1416 ft
- IATA code : ZRH


LSZH - Zurich

CURRENT METAR :
  • 301420Z 06005KT 030V090 9999 FEW012 OVC017 05/02 Q1019 TEMPO BKN014

EXPIRED METARs :
  • 301350Z 05008KT 9999 SCT012 BKN018 05/02 Q1019 TEMPO BKN013
  • 301320Z 04006KT 010V070 9999 FEW015 BKN017 05/02 Q1019 NOSIG
  • 301250Z 03004KT 350V060 9999 FEW015 BKN018 06/02 Q1019 NOSIG
  • 301220Z 03006KT 9999 SCT016 BKN020 06/02 Q1019 NOSIG
  • 301150Z 03005KT 360V080 9999 SCT017 BKN022 06/02 Q1019 NOSIG

TAF TAF LSZH
Valid from the 30 at 15:00 until the 01 at 21:00 UTC


301425Z 3015/0121 04007KT 9999 FEW013 BKN018 TX05/3015Z TN03/0105Z TX04/0113Z
TEMPO 3015/0110 BKN013
BECMG 3023/0102 VRB02KT
BECMG 0109/0111 04006KT
ATIS : +41 43 816 2295 (DEP) +41 43 816 2294 (ARR)



MET'MAP, your aeronautical weather chart ! - Copyright ORBIFLY December 2007 - Disclaimer

ORBIFLY MET'MAP TEAM :

Programming & Development : Alexandra Zaïnal
Original concept : Baudouin d'Aumeries
Technical & hardware support : Manuel Goepfert
Assistance : Marc-Olivier Méhu




SOURCES & CREDITS :

   NOAA